Flight Track Log - Related Links

Times and Time Zones

All times are in EDT time to prevent confusion due to time zone crossing. See the BAW16 flight status page for this flight to view local times or setup timezone preferences in your user account.

Time Position Orientation Groundspeed Altitude Reporting Facility
EDT Latitude Longitude Course Direction KTS MPH feet Rate Location/Type
Fri 01:44:17 AM -33.9350 151.1690 57° Northeast 2 2  Level FlightAware ADS-B
Fri 01:51:02 AM -33.9370 151.1720 140° Southeast 14 16 59 Level FlightAware ADS-B
Fri 01:51:07 AM -33.9380 151.1720 180° South 15 17 119 Level FlightAware ADS-B
Fri 01:51:42 AM -33.9410 151.1730 165° South 21 24 121 Level FlightAware ADS-B
Fri 01:52:12 AM -33.9440 151.1730 180° South 20 23 133 Level FlightAware ADS-B
Fri 01:52:37 AM -33.9460 151.1740 157° South 19 22 145 Level FlightAware ADS-B
Fri 01:53:07 AM -33.9490 151.1750 165° South 23 26 156 Level FlightAware ADS-B
Fri 01:53:22 AM -33.9500 151.1750 180° South 24 28 173 Level FlightAware ADS-B
Fri 01:53:47 AM -33.9530 151.1760 165° South 26 30 183 Level FlightAware ADS-B
Fri 01:54:17 AM -33.9570 151.1770 168° South 28 32 203 Level FlightAware ADS-B
Fri 01:54:42 AM -33.9600 151.1780 165° South 30 35 232 Level FlightAware ADS-B
Fri 01:54:57 AM -33.9620 151.1780 180° South 24 28 264 Level FlightAware ADS-B
Fri 01:55:27 AM -33.9640 151.1790 157° South 12 14 287 Level FlightAware ADS-B
Fri 01:55:57 AM -33.9640 151.1810 90° East 7 8 350 Level FlightAware ADS-B
Fri 01:56:22 AM -33.9640 151.1800 270° West 2 2 449 Level FlightAware ADS-B
Fri 01:56:52 AM -33.9630 151.1800 360° North 10 12 585 Level FlightAware ADS-B
Fri 01:57:17 AM -33.9550 151.1780 348° North 120 138 923 Level FlightAware ADS-B
Fri 01:57:44 AM -33.9321 151.1724 348° North 163 188 800 1,000 Climbing Aus ATC (RADAR)
Fri 01:57:47 AM -33.9330 151.1730 348° North 162 186 500 1,273 Descending FlightAware ADS-B
Fri 01:58:17 AM -33.9090 151.1660 346° North 186 214 1,500 1,800 Climbing FlightAware ADS-B
Fri 01:58:27 AM -33.9010 151.1620 337° Northwest 198 228 1,700 960 Climbing FlightAware ADS-B
Fri 01:58:42 AM -33.8900 151.1500 318° Northwest 216 249 1,900 1,200 Climbing FlightAware ADS-B
Fri 01:59:12 AM -33.8670 151.1200 313° West 247 284 2,600 1,964 Climbing FlightAware ADS-B
Fri 01:59:37 AM -33.8480 151.0960 314° West 249 287 3,700 3,000 Climbing FlightAware ADS-B
Fri 02:00:14 AM -33.8137 151.0509 314° West 250 288 5,700 2,800 Climbing Aus ATC (RADAR)
Fri 02:00:22 AM -33.8090 151.0440 314° West 262 302 5,800 1,826 Climbing FlightAware ADS-B
Fri 02:00:37 AM -33.7960 151.0280 314° West 265 305 6,400 2,400 Climbing FlightAware ADS-B
Fri 02:01:02 AM -33.7740 151.0010 314° West 263 303 7,400 2,280 Climbing FlightAware ADS-B
Fri 02:01:27 AM -33.7550 150.9760 312° West 267 307 8,300 1,895 Climbing FlightAware ADS-B
Fri 02:02:37 AM -33.6980 150.8920 309° West 298 343 10,400 1,793 Climbing FlightAware ADS-B
Fri 02:02:54 AM -33.6802 150.8595 309° West 305 351 10,900 1,522 Climbing Aus ATC (RADAR)
Fri 02:03:44 AM -33.6339 150.7788 305° West 352 405 12,100 1,241 Climbing Aus ATC (RADAR)
Fri 02:03:52 AM -33.6310 150.7730 305° West 373 429 12,100 2,690 Level FlightAware ADS-B
Fri 02:04:42 AM -33.5770 150.6790 305° West 392 451 14,700 3,462 Climbing FlightAware ADS-B
Fri 02:04:44 AM -33.5733 150.6722 305° West 376 433 15,100 3,568 Climbing Aus ATC (RADAR)
Fri 02:05:19 AM -33.5378 150.6082 305° West 381 438 16,900 2,651 Climbing Aus ATC (RADAR)
Fri 02:05:27 AM -33.5330 150.6000 305° West 398 458 17,000 2,264 Climbing FlightAware ADS-B
Fri 02:06:12 AM -33.4870 150.5160 303° West 411 473 18,900 2,471 Climbing FlightAware ADS-B
Fri 02:06:52 AM -33.4440 150.4400 304° West 422 486 20,500 2,620 Climbing FlightAware ADS-B
Fri 02:07:23 AM -33.4044 150.3691 304° West 416 479 22,000 2,267 Climbing Aus ATC (RADAR)
Fri 02:07:37 AM -33.3940 150.3500 304° West 435 501 22,200 2,000 Climbing FlightAware ADS-B
Fri 02:07:59 AM -33.3648 150.2986 304° West 426 490 23,200 1,800 Climbing Aus ATC (RADAR)
Fri 02:08:17 AM -33.3480 150.2690 304° West 449 517 23,400 1,889 Climbing FlightAware ADS-B
Fri 02:08:53 AM -33.3007 150.1842 304° West 444 511 24,900 1,950 Climbing Aus ATC (RADAR)
Fri 02:08:57 AM -33.3030 150.1880 304° West 459 528 24,700 1,592 Descending FlightAware ADS-B
Fri 02:09:42 AM -33.2470 150.0880 304° West 469 540 26,200 1,906 Climbing FlightAware ADS-B
Fri 02:10:22 AM -33.2000 150.0050 304° West 477 549 27,400 1,725 Climbing FlightAware ADS-B
Fri 02:11:02 AM -33.1500 149.9170 304° West 488 562 28,500 1,770 Climbing FlightAware ADS-B
Fri 02:11:23 AM -33.1164 149.8577 304° West 479 551 29,200 1,333 Climbing Aus ATC (RADAR)
Fri 02:11:47 AM -33.0940 149.8170 304° West 496 571 29,500 1,964 Climbing FlightAware ADS-B
Fri 02:12:18 AM -33.0452 149.7322 304° West 489 563 31,000 2,250 Climbing Aus ATC (RADAR)
Fri 02:12:27 AM -33.0390 149.7210 304° West 493 567 31,000 2,100 Level FlightAware ADS-B
Fri 02:12:58 AM -32.9940 149.6423 304° West 482 555 32,400 1,867 Climbing Aus ATC (RADAR)
Fri 02:13:12 AM -32.9810 149.6190 304° West 494 568 32,400 1,560 Level FlightAware ADS-B
Fri 02:13:48 AM -32.9297 149.5302 304° West 483 556 33,700 1,733 Climbing Aus ATC (RADAR)
Fri 02:13:57 AM -32.9220 149.5160 304° West 494 568 33,700 367 Level FlightAware ADS-B
Fri 02:14:37 AM -32.8710 149.4270 304° West 490 564 34,000 225 Climbing FlightAware ADS-B
Fri 02:15:17 AM -32.8190 149.3350 304° West 493 567 34,000  Level FlightAware ADS-B
Fri 02:16:02 AM -32.7610 149.2360 305° West 492 566 34,000  Level FlightAware ADS-B
Fri 02:16:47 AM -32.7040 149.1360 304° West 491 565 34,000  Level FlightAware ADS-B
Fri 02:17:27 AM -32.6520 149.0460 304° West 491 565 34,000  Level FlightAware ADS-B
Fri 02:18:07 AM -32.6010 148.9580 305° West 489 563 34,000 171 Level FlightAware ADS-B
Fri 02:18:37 AM -32.5580 148.8851 305° West 484 557 34,200  Climbing Aus ATC (RADAR)
Fri 02:18:52 AM -32.5420 148.8580 305° West 490 564 34,000 -218 Descending FlightAware ADS-B
Fri 02:19:32 AM -32.4900 148.7690 305° West 490 564 34,000  Level FlightAware ADS-B
Fri 02:20:27 AM -32.4210 148.6500 304° West 490 564 34,000  Level FlightAware ADS-B
Fri 02:21:07 AM -32.3670 148.5590 305° West 485 558 34,000 185 Level FlightAware ADS-B
Fri 02:21:32 AM -32.4231 148.6535 305° West 485 558 34,200  Climbing Aus ATC (RADAR)
Fri 02:22:32 AM -32.2620 148.3800 305° West 486 559 34,000  Descending FlightAware ADS-B
Fri 02:23:15 AM -32.2812 148.4124 305° West 483 556 34,200  Climbing Aus ATC (RADAR)
Fri 02:23:57 AM -32.1520 148.1930 305° West 486 559 34,000 -138 Descending FlightAware ADS-B
Fri 02:24:42 AM -32.0930 148.0940 305° West 485 558 34,000  Level FlightAware ADS-B
Fri 02:25:22 AM -32.0410 148.0060 305° West 485 558 34,000  Level FlightAware ADS-B
Fri 02:26:02 AM -31.9900 147.9210 305° West 485 558 34,000 200 Level FlightAware ADS-B
Fri 02:26:22 AM -31.9567 147.8659 305° West 483 556 34,200  Climbing Aus ATC (RADAR)
Fri 02:26:37 AM -31.9375 147.8332 305° West 483 556 34,000 -480 Descending Aus ATC (RADAR)
Fri 02:26:47 AM -31.9300 147.8210 305° West 484 557 34,000  Level FlightAware ADS-B
Fri 02:27:27 AM -31.8770 147.7330 305° West 484 557 34,000  Level FlightAware ADS-B
Fri 02:28:12 AM -31.8200 147.6370 305° West 483 556 34,000  Level FlightAware ADS-B
Fri 02:28:52 AM -31.7670 147.5500 306° West 483 556 34,000  Level FlightAware ADS-B
Fri 02:29:32 AM -31.7160 147.4650 305° West 482 555 34,000  Level FlightAware ADS-B
Fri 02:30:17 AM -31.6550 147.3630 305° West 481 554 34,000  Level FlightAware ADS-B
Fri 02:30:57 AM -31.6040 147.2790 305° West 481 554 34,000  Level FlightAware ADS-B
Fri 02:31:37 AM -31.5480 147.1940 308° West 490 564 34,000  Level FlightAware ADS-B
Fri 02:32:22 AM -31.4730 147.1110 317° Northwest 495 570 34,000  Level FlightAware ADS-B
Fri 02:32:51 AM -31.4179 147.0523 317° Northwest 493 567 34,000  Level Aus ATC (RADAR)
Fri 02:33:02 AM -31.4050 147.0390 317° Northwest 494 568 34,000  Level FlightAware ADS-B
Fri 02:33:37 AM -31.3520 146.9830 318° Northwest 494 568 34,000  Level FlightAware ADS-B
Fri 02:34:27 AM -31.2600 146.8870 318° Northwest 494 568 34,000  Level FlightAware ADS-B
Fri 02:35:07 AM -31.1970 146.8220 319° Northwest 493 567 34,000  Level FlightAware ADS-B
Fri 02:35:31 AM -31.1458 146.7687 319° Northwest 490 564 34,000  Level Aus ATC (RADAR)
Fri 02:35:47 AM -31.1400 146.7610 319° Northwest 493 567 34,000  Level FlightAware ADS-B
Fri 02:36:27 AM -31.0820 146.7000 318° Northwest 493 567 34,000  Level FlightAware ADS-B
Fri 02:37:11 AM -30.9757 146.5929 318° Northwest 495 570 34,000  Level Aus ATC (RADAR)
Fri 02:37:17 AM -31.0100 146.6250 318° Northwest 493 567 34,000  Level FlightAware ADS-B
Fri 02:37:57 AM -30.9520 146.5640 318° Northwest 493 567 34,000  Level FlightAware ADS-B
Fri 02:38:37 AM -30.8950 146.5040 318° Northwest 493 567 34,000  Level FlightAware ADS-B
Fri 02:39:17 AM -30.8370 146.4430 318° Northwest 493 567 34,000  Level FlightAware ADS-B
Fri 02:39:57 AM -30.7790 146.3830 318° Northwest 493 567 34,000  Level FlightAware ADS-B
Fri 02:40:37 AM -30.7220 146.3220 317° Northwest 493 567 34,000  Level FlightAware ADS-B
Fri 02:41:27 AM -30.6500 146.2470 318° Northwest 493 567 34,000  Level FlightAware ADS-B
Fri 02:42:07 AM -30.5920 146.1870 318° Northwest 493 567 34,000  Level FlightAware ADS-B
Fri 02:42:47 AM -30.5350 146.1260 317° Northwest 493 567 34,000  Level FlightAware ADS-B
Fri 02:43:03 AM -30.3155 145.9133 141° Southeast 34,000  Level Aus ATC (Calculated)
Fri 02:43:27 AM -30.4770 146.0660 317° Northwest 493 567 34,000  Level FlightAware ADS-B
Fri 02:44:05 AM -30.2103 145.8058 141° Southeast 34,000  Level Aus ATC (Calculated)
Fri 02:44:17 AM -30.4050 145.9910 318° Northwest 493 567 34,000 34 Level FlightAware ADS-B
Fri 02:46:00 AM -30.0269 145.6192 319° Northwest  Level FlightAware Approximate
Fri 02:47:00 AM -29.9357 145.5266 319° Northwest  Level FlightAware Approximate
Fri 02:47:25 AM -29.9475 145.4213 309° West 34,000  Level Aus ATC (Calculated)
Fri 02:47:45 AM -29.9475 145.4213 309° West 34,000 39 Level Aus ATC (Calculated)
Fri 02:49:00 AM -29.8363 145.5528 46° Northeast  Level FlightAware Approximate
Fri 02:50:00 AM -29.9253 145.4476 226° Southwest  Level FlightAware Approximate
Fri 02:51:00 AM -29.8319 145.3841 306° West  Level FlightAware Approximate
Fri 02:52:00 AM -29.7577 145.2647 306° West  Level FlightAware Approximate
Fri 02:52:39 AM -29.5347 144.8245 309° West 34,000  Level Aus ATC (Calculated)
Fri 02:52:39 AM -29.5347 144.8245 309° West 34,000 53 Level Aus ATC (Calculated)
Fri 02:53:00 AM -29.6834 145.1454 306° West  Level FlightAware Approximate
Fri 02:54:00 AM -29.4270 144.6703 309° West  Level FlightAware Approximate
Fri 02:55:00 AM -29.3472 144.5563 309° West  Level FlightAware Approximate
Fri 02:56:00 AM -29.2672 144.4425 309° West  Level FlightAware Approximate
Fri 02:56:19 AM -29.2345 144.3959 310° West 34,000  Level Aus ATC (Calculated)
Fri 02:57:00 AM -29.1872 144.3289 309° West  Level FlightAware Approximate
Fri 02:57:38 AM -29.1174 144.2299 310° West 34,000  Level Aus ATC (Calculated)
Fri 02:59:00 AM -29.0077 144.0751 309° West  Level FlightAware Approximate
Fri 02:59:14 AM -29.0000 144.0643 310° West 34,000  Level Aus ATC (Calculated)
Fri 02:59:45 AM -28.9390 143.9823 310° West 34,000 94 Level Aus ATC (Calculated)
Fri 03:00:16 AM -28.8779 143.9005 310° West 34,000 100 Level Aus ATC (Calculated)
Fri 03:01:00 AM -29.0422 144.1211 130° Southeast  Level FlightAware Approximate
Fri 03:02:00 AM -28.9243 143.9627 310° West  Level FlightAware Approximate
Fri 03:03:00 AM -28.8416 143.8520 310° West  Level FlightAware Approximate
Fri 03:03:24 AM -28.6331 143.5740 311° West 34,000  Level Aus ATC (Calculated)
Fri 03:04:00 AM -28.7588 143.7414 310° West  Level FlightAware Approximate
Fri 03:05:00 AM -28.5002 143.3978 311° West  Level FlightAware Approximate
Fri 03:06:00 AM -28.4171 143.2880 311° West  Level FlightAware Approximate
Fri 03:07:00 AM -28.3338 143.1783 311° West  Level FlightAware Approximate
Fri 03:07:33 AM -28.2644 143.0870 136° Southeast 34,000  Level Aus ATC (Calculated)
Fri 03:07:47 AM -28.2680 143.0910 311° West 475 547 34,800 980 Climbing FlightAware ADS-B
Fri 03:08:22 AM -28.2120 143.0190 311° West 475 547 34,800  Level FlightAware ADS-B
Fri 03:09:07 AM -28.1570 142.9440 310° West 475 547 34,800  Level FlightAware ADS-B
Fri 03:10:07 AM -28.0740 142.8360 311° West 472 543 34,800  Level FlightAware ADS-B
Fri 03:10:42 AM -28.0080 142.7510 311° West 472 543 34,800  Level FlightAware ADS-B
Fri 03:11:47 AM -27.9220 142.6390 311° West 472 543 34,800  Level FlightAware ADS-B
Fri 03:12:27 AM -27.8570 142.5550 311° West 473 544 34,800  Level FlightAware ADS-B
Fri 03:13:12 AM -27.8010 142.4830 311° West 473 544 34,800  Level FlightAware ADS-B
Fri 03:13:52 AM -27.7340 142.3970 311° West 472 543 34,800  Level FlightAware ADS-B
Fri 03:14:03 AM -27.7081 142.3628 311° West 34,000  Descending Aus ATC (Calculated)
Fri 03:14:32 AM -27.6750 142.3200 311° West 472 543 34,800 608 Climbing FlightAware ADS-B
Fri 03:15:22 AM -27.6100 142.2360 311° West 472 543 34,800  Level FlightAware ADS-B
Fri 03:16:12 AM -27.5340 142.1390 311° West 474 545 34,800  Level FlightAware ADS-B
Fri 03:16:57 AM -27.4660 142.0520 311° West 476 548 34,800  Level FlightAware ADS-B
Fri 03:17:32 AM -27.3974 141.9636 311° West 34,000  Descending Aus ATC (Calculated)
Fri 03:17:52 AM -27.3860 141.9490 311° West 476 548 34,800 640 Climbing FlightAware ADS-B
Fri 03:18:47 AM -27.3120 141.8530 311° West 472 543 34,800  Level FlightAware ADS-B
Fri 03:19:27 AM -27.2630 141.7900 311° West 472 543 34,800  Level FlightAware ADS-B
Fri 03:20:12 AM -27.1820 141.6890 312° West 474 545 34,800  Level FlightAware ADS-B
Fri 03:20:57 AM -27.1180 141.6070 311° West 473 544 34,800  Level FlightAware ADS-B
Fri 03:21:37 AM -27.0630 141.5380 312° West 471 542 34,800  Level FlightAware ADS-B
Fri 03:22:17 AM -27.0020 141.4610 312° West 472 543 34,800 71 Level FlightAware ADS-B
Fri 03:22:31 AM -26.9605 141.4085 312° West 34,000 133 Descending Aus ATC (Calculated)
Fri 03:23:02 AM -26.9360 141.3780 312° West 471 542 34,900 761 Climbing FlightAware ADS-B
Fri 03:23:42 AM -26.8800 141.3070 311° West 473 544 34,900  Level FlightAware ADS-B
Fri 03:24:27 AM -26.8130 141.2230 312° West 474 545 34,900  Level FlightAware ADS-B
Fri 03:25:07 AM -26.7550 141.1500 312° West 476 548 34,900  Level FlightAware ADS-B
Fri 03:25:47 AM -26.6970 141.0760 311° West 476 548 34,900  Level FlightAware ADS-B
Fri 03:26:32 AM -26.6310 140.9950 312° West 476 548 34,900  Level FlightAware ADS-B
Fri 03:27:12 AM -26.5700 140.9180 312° West 476 548 34,900  Level FlightAware ADS-B
Fri 03:27:30 AM -26.4585 140.7793 132° Southeast 34,000  Descending Aus ATC (Calculated)
Fri 03:27:57 AM -26.5060 140.8380 312° West 476 548 34,900 806 Climbing FlightAware ADS-B
Fri 03:28:37 AM -26.4460 140.7640 312° West 475 547 34,900  Level FlightAware ADS-B
Fri 03:29:17 AM -26.3890 140.6930 312° West 475 547 34,900 71 Level FlightAware ADS-B
Fri 03:29:21 AM -26.3325 140.6228 313° West 34,000 133 Descending Aus ATC (Calculated)
Fri 03:29:21 AM -26.3325 140.6228 313° West 34,000 1,463 Level Aus ATC (Calculated)
Fri 03:30:02 AM -26.3260 140.6150 312° West 473 544 35,000 741 Climbing FlightAware ADS-B
Fri 03:30:42 AM -26.2620 140.5350 312° West 473 544 35,000  Level FlightAware ADS-B
Fri 03:31:52 AM -26.1600 140.4090 312° West 470 541 35,000  Level FlightAware ADS-B
Fri 03:32:27 AM -26.1140 140.3520 312° West 468 539 35,000  Level FlightAware ADS-B
Fri 03:32:30 AM -26.0169 140.2332 133° Southeast 34,000  Descending Aus ATC (Calculated)
Fri 03:33:18 AM -25.9537 140.1555 132° Southeast 34,000 1,053 Level Aus ATC (Calculated)
Fri 03:33:27 AM -26.0410 140.2620 312° West 469 540 35,000 1,224 Climbing FlightAware ADS-B
Fri 03:34:07 AM -25.9920 140.2020 312° West 469 540 35,000  Level FlightAware ADS-B
Fri 03:34:47 AM -25.9420 140.1410 312° West 469 540 35,000  Level FlightAware ADS-B
Fri 03:35:37 AM -25.8810 140.0640 311° West 469 540 35,000  Level FlightAware ADS-B
Fri 03:36:17 AM -25.8310 140.0030 312° West 469 540 35,000 13 Level FlightAware ADS-B
Fri 03:37:00 AM -25.6368 139.7683 309° West 34,000 14 Descending Aus ATC (Calculated)
Fri 03:38:00 AM -25.5509 139.6639 312° West  Level FlightAware Approximate
Fri 03:39:00 AM -25.4649 139.5597 312° West  Level FlightAware Approximate
Fri 03:40:00 AM -25.3789 139.4556 312° West  Level FlightAware Approximate
Fri 03:41:00 AM -25.2928 139.3516 312° West  Level FlightAware Approximate
Fri 03:41:59 AM -25.1915 139.2297 308° West 34,000  Level Aus ATC (Calculated)
Fri 03:42:00 AM -25.2066 139.2478 313° West  Level FlightAware Approximate
Fri 03:43:00 AM -25.1203 139.1442 313° West  Level FlightAware Approximate
Fri 03:43:24 AM -25.0639 139.0765 307° West 34,000  Level Aus ATC (Calculated)
Fri 03:44:32 AM -24.9653 138.9495 307° West 34,000 89 Level Aus ATC (Calculated)
Fri 03:45:04 AM -24.8959 138.8486 307° West 34,000 96 Level Aus ATC (Calculated)
Fri 03:46:44 AM -24.7916 138.6975 307° West 34,000 100 Level Aus ATC (Calculated)
Fri 03:47:00 AM -25.0448 139.0652 127° Southeast  Level FlightAware Approximate
Fri 03:48:00 AM -24.8934 138.8451 127° Southeast  Level FlightAware Approximate
Fri 03:48:56 AM -24.5825 138.3960 307° West 34,000  Level Aus ATC (Calculated)
Fri 03:49:00 AM -24.9499 138.9272 307° West  Level FlightAware Approximate
Fri 03:50:00 AM -24.4964 138.2724 307° West  Level FlightAware Approximate
Fri 03:50:04 AM -24.5127 138.2958 307° West 34,000  Level Aus ATC (Calculated)
Fri 03:52:00 AM -24.3627 138.0810 307° West  Level FlightAware Approximate
Fri 03:53:00 AM -24.2850 137.9702 308° West  Level FlightAware Approximate
Fri 03:54:00 AM -24.2073 137.8594 308° West  Level FlightAware Approximate
Fri 03:55:00 AM -24.1294 137.7488 308° West  Level FlightAware Approximate
Fri 03:55:03 AM -24.0924 137.6964 308° West 34,000  Level Aus ATC (Calculated)
Fri 03:57:00 AM -23.9403 137.4813 308° West  Level FlightAware Approximate
Fri 03:58:00 AM -23.8622 137.3711 308° West  Level FlightAware Approximate
Fri 03:58:02 AM -23.9740 137.5290 308° West 467 537 35,300  Level FlightAware ADS-B
Fri 03:58:12 AM -23.8109 137.2990 128° Southeast 34,000  Descending Aus ATC (Calculated)
Fri 03:58:42 AM -23.9220 137.4560 308° West 467 537 35,300 1,040 Climbing FlightAware ADS-B
Fri 03:59:27 AM -23.8620 137.3710 308° West 466 536 35,300  Level FlightAware ADS-B
Fri 04:00:03 AM -23.6698 137.1010 128° Southeast 34,000  Descending Aus ATC (Calculated)
Fri 04:00:07 AM -23.8090 137.2970 308° West 465 535 35,300 1,773 Climbing FlightAware ADS-B
Fri 04:00:12 AM -23.6698 137.1010 128° Southeast 34,000  Descending Aus ATC (Calculated)
Fri 04:00:47 AM -23.7610 137.2280 308° West 465 535 35,300 1,040 Climbing FlightAware ADS-B
Fri 04:00:57 AM -23.5991 137.0021 128° Southeast 34,000  Descending Aus ATC (Calculated)
Fri 04:01:27 AM -23.7050 137.1500 308° West 466 536 35,300 1,040 Climbing FlightAware ADS-B
Fri 04:02:12 AM -23.6440 137.0650 308° West 466 536 35,300  Level FlightAware ADS-B
Fri 04:02:57 AM -23.5860 136.9830 308° West 466 536 35,300  Level FlightAware ADS-B
Fri 04:03:37 AM -23.5300 136.9050 308° West 464 534 35,300  Level FlightAware ADS-B
Fri 04:04:32 AM -23.4570 136.8040 308° West 463 533 35,300  Level FlightAware ADS-B
Fri 04:05:07 AM -23.2449 136.5093 128° Southeast 34,000  Descending Aus ATC (Calculated)
Fri 04:05:17 AM -23.3990 136.7220 308° West 461 531 35,300 1,680 Climbing FlightAware ADS-B
Fri 04:05:23 AM -23.2094 136.4602 128° Southeast 34,000 150 Descending Aus ATC (Calculated)
Fri 04:05:57 AM -23.3470 136.6510 308° West 461 531 35,400 1,063 Climbing FlightAware ADS-B
Fri 04:06:14 AM -23.1383 136.3620 128° Southeast 34,000  Descending Aus ATC (Calculated)
Fri 04:06:14 AM -23.1383 136.3620 128° Southeast 34,000 3,000 Level Aus ATC (Calculated)
Fri 04:06:42 AM -23.2880 136.5690 308° West 462 532 35,400 1,235 Climbing FlightAware ADS-B
Fri 04:07:22 AM -23.2350 136.4960 308° West 463 533 35,400  Level FlightAware ADS-B
Fri 04:08:02 AM -23.1810 136.4210 308° West 464 534 35,400  Level FlightAware ADS-B
Fri 04:08:47 AM -23.1230 136.3400 308° West 464 534 35,400  Level FlightAware ADS-B
Fri 04:09:27 AM -23.0700 136.2680 309° West 465 535 35,400  Level FlightAware ADS-B
Fri 04:10:07 AM -23.0150 136.1920 308° West 465 535 35,400  Level FlightAware ADS-B
Fri 04:10:07 AM -22.8177 135.9214 129° Southeast 34,000  Descending Aus ATC (Calculated)
Fri 04:10:52 AM -22.9550 136.1090 308° West 465 535 35,400 988 Climbing FlightAware ADS-B
Fri 04:11:32 AM -22.9020 136.0370 309° West 465 535 35,400  Level FlightAware ADS-B
Fri 04:12:17 AM -22.8430 135.9570 309° West 466 536 35,400  Level FlightAware ADS-B
Fri 04:12:57 AM -22.7890 135.8830 308° West 467 537 35,400  Level FlightAware ADS-B
Fri 04:13:26 AM -22.5685 135.4918 120° Southeast 34,000  Descending Aus ATC (Calculated)
Fri 04:13:42 AM -22.7310 135.7950 306° West 464 534 35,400 1,500 Climbing FlightAware ADS-B
Fri 04:14:22 AM -22.6870 135.7140 306° West 465 535 35,400  Level FlightAware ADS-B
Fri 04:14:57 AM -22.6510 135.6460 300° West 465 535 35,400  Level FlightAware ADS-B
Fri 04:15:37 AM -22.6080 135.5650 300° West 465 535 35,400 67 Level FlightAware ADS-B
Fri 04:16:27 AM -22.5550 135.4660 300° West 464 534 35,500 63 Climbing FlightAware ADS-B
Fri 04:17:12 AM -22.5040 135.3720 300° West 465 535 35,500  Level FlightAware ADS-B
Fri 04:17:52 AM -22.4610 135.2930 300° West 466 536 35,500  Level FlightAware ADS-B
Fri 04:18:32 AM -22.4170 135.2100 300° West 466 536 35,500  Level FlightAware ADS-B
Fri 04:18:44 AM -22.2556 134.9128 120° Southeast 34,000  Descending Aus ATC (Calculated)
Fri 04:19:17 AM -22.3700 135.1240 300° West 466 536 35,500 1,233 Climbing FlightAware ADS-B
Fri 04:19:57 AM -22.3260 135.0420 300° West 466 536 35,500  Level FlightAware ADS-B
Fri 04:20:05 AM -22.1658 134.7478 120° Southeast 34,000  Descending Aus ATC (Calculated)
Fri 04:20:37 AM -22.2840 134.9650 301° West 465 535 35,500 1,169 Climbing FlightAware ADS-B
Fri 04:21:22 AM -22.2330 134.8710 301° West 466 536 35,500  Level FlightAware ADS-B
Fri 04:22:02 AM -22.1890 134.7910 301° West 467 537 35,500 71 Level FlightAware ADS-B
Fri 04:22:16 AM -22.0309 134.5007 121° Southeast 34,000 133 Descending Aus ATC (Calculated)
Fri 04:22:47 AM -22.1420 134.7040 301° West 464 534 35,600 1,352 Climbing FlightAware ADS-B
Fri 04:23:27 AM -22.0970 134.6220 301° West 467 537 35,600  Level FlightAware ADS-B
Fri 04:23:27 AM -21.9407 134.3363 121° Southeast 34,000  Descending Aus ATC (Calculated)
Fri 04:24:07 AM -22.0540 134.5430 301° West 467 537 35,600 1,129 Climbing FlightAware ADS-B
Fri 04:24:52 AM -22.0030 134.4500 301° West 466 536 35,600  Level FlightAware ADS-B
Fri 04:25:32 AM -21.9600 134.3710 300° West 466 536 35,600  Level FlightAware ADS-B
Fri 04:26:17 AM -21.9110 134.2820 301° West 466 536 35,600  Level FlightAware ADS-B
Fri 04:26:57 AM -21.8670 134.2030 301° West 466 536 35,600  Level FlightAware ADS-B
Fri 04:27:15 AM -21.6691 133.8442 121° Southeast 34,000  Descending Aus ATC (Calculated)
Fri 04:27:42 AM -21.8170 134.1110 301° West 466 536 35,600 1,433 Climbing FlightAware ADS-B
Fri 04:28:22 AM -21.7720 134.0300 301° West 468 539 35,600  Level FlightAware ADS-B
Fri 04:29:02 AM -21.7300 133.9530 300° West 468 539 35,600  Level FlightAware ADS-B
Fri 04:29:47 AM -21.6780 133.8610 301° West 468 539 35,600  Level FlightAware ADS-B
Fri 04:30:27 AM -21.6380 133.7880 301° West 467 537 35,600  Level FlightAware ADS-B
Fri 04:31:07 AM -21.5930 133.7060 301° West 467 537 35,600  Level FlightAware ADS-B
Fri 04:31:52 AM -21.5450 133.6200 301° West 468 539 35,600  Level FlightAware ADS-B
Fri 04:32:15 AM -21.3505 133.2724 121° Southeast 34,000  Descending Aus ATC (Calculated)
Fri 04:32:27 AM -21.3505 133.2724 121° Southeast 34,000 5,647 Level Aus ATC (Calculated)
Fri 04:32:32 AM -21.4970 133.5350 301° West 467 537 35,600 2,040 Climbing FlightAware ADS-B
Fri 04:33:17 AM -21.4480 133.4460 301° West 466 536 35,700 71 Climbing FlightAware ADS-B
Fri 04:33:52 AM -21.2315 133.0667 122° Southeast 36,000  Climbing Aus ATC (Calculated)
Fri 04:33:57 AM -21.4050 133.3690 301° West 466 536 35,700 -400 Descending FlightAware ADS-B
Fri 04:34:37 AM -21.3580 133.2850 301° West 466 536 35,700  Level FlightAware ADS-B
Fri 04:35:19 AM -21.1213 132.8807 122° Southeast 36,000  Climbing Aus ATC (Calculated)
Fri 04:35:22 AM -21.3070 133.1950 301° West 467 537 35,700 -419 Descending FlightAware ADS-B
Fri 04:35:24 AM -21.1213 132.8807 123° Southeast 36,000  Climbing Aus ATC (Calculated)
Fri 04:36:02 AM -21.2610 133.1150 301° West 469 540 35,700 -217 Descending FlightAware ADS-B
Fri 04:36:47 AM -21.2090 133.0280 301° West 471 542 35,700  Level FlightAware ADS-B
Fri 04:37:27 AM -21.1620 132.9500 303° West 471 542 35,700  Level FlightAware ADS-B
Fri 04:38:07 AM -21.1140 132.8680 302° West 472 543 35,700  Level FlightAware ADS-B
Fri 04:38:52 AM -21.0620 132.7800 302° West 473 544 35,700  Level FlightAware ADS-B
Fri 04:39:32 AM -21.0150 132.7020 303° West 474 545 35,700  Level FlightAware ADS-B
Fri 04:40:12 AM -20.9670 132.6220 303° West 476 548 35,700  Level FlightAware ADS-B
Fri 04:40:19 AM -20.7526 132.2627 123° Southeast 36,000  Climbing Aus ATC (Calculated)
Fri 04:40:52 AM -20.9200 132.5430 302° West 476 548 35,700 -231 Descending FlightAware ADS-B
Fri 04:41:37 AM -20.8670 132.4540 302° West 477 549 35,700  Level FlightAware ADS-B
Fri 04:42:22 AM -20.8140 132.3640 302° West 477 549 35,700  Level FlightAware ADS-B
Fri 04:43:02 AM -20.7650 132.2840 303° West 478 550 35,700  Level FlightAware ADS-B
Fri 04:43:42 AM -20.7180 132.2050 302° West 480 552 35,700  Level FlightAware ADS-B
Fri 04:44:27 AM -20.6660 132.1180 303° West 480 552 35,700  Level FlightAware ADS-B
Fri 04:45:02 AM -20.6220 132.0450 303° West 482 555 35,700  Level FlightAware ADS-B
Fri 04:45:18 AM -20.3817 131.6476 123° Southeast 36,000  Climbing Aus ATC (Calculated)
Fri 04:45:47 AM -20.5690 131.9570 303° West 482 555 35,700 -261 Descending FlightAware ADS-B
Fri 04:46:03 AM -20.3444 131.5863 123° Southeast 36,000  Climbing Aus ATC (Calculated)
Fri 04:46:27 AM -20.5230 131.8800 303° West 482 555 35,700 -174 Descending FlightAware ADS-B
Fri 04:47:12 AM -20.4640 131.7830 303° West 481 554 35,800 67 Climbing FlightAware ADS-B
Fri 04:47:23 AM -20.2327 131.4024 123° Southeast 36,000  Climbing Aus ATC (Calculated)
Fri 04:47:57 AM -20.4100 131.6940 303° West 482 555 35,800 -162 Descending FlightAware ADS-B
Fri 04:48:37 AM -20.3630 131.6160 303° West 482 555 35,800  Level FlightAware ADS-B
Fri 04:49:22 AM -20.3100 131.5290 303° West 481 554 35,800  Level FlightAware ADS-B
Fri 04:50:02 AM -20.2580 131.4440 303° West 482 555 35,800  Level FlightAware ADS-B
Fri 04:50:03 AM -20.0460 131.0966 123° Southeast 36,000  Climbing Aus ATC (Calculated)
Fri 04:50:42 AM -20.2110 131.3670 303° West 483 556 35,800 -143 Descending FlightAware ADS-B
Fri 04:51:27 AM -20.1560 131.2750 302° West 483 556 35,800  Level FlightAware ADS-B
Fri 04:52:02 AM -20.1160 131.2100 303° West 483 556 35,800  Level FlightAware ADS-B
Fri 04:52:18 AM -19.8587 130.7915 123° Southeast 36,000  Climbing Aus ATC (Calculated)
Fri 04:52:47 AM -20.0580 131.1160 303° West 485 558 35,800 -162 Descending FlightAware ADS-B
Fri 04:53:32 AM -20.0030 131.0250 303° West 483 556 35,800  Level FlightAware ADS-B
Fri 04:54:12 AM -19.9560 130.9490 303° West 483 556 35,800  Level FlightAware ADS-B
Fri 04:54:57 AM -19.9000 130.8570 303° West 483 556 35,800  Level FlightAware ADS-B
Fri 04:55:37 AM -19.8580 130.7870 303° West 483 556 35,800  Level FlightAware ADS-B
Fri 04:56:17 AM -19.8030 130.7000 304° West 482 555 35,800  Level FlightAware ADS-B
Fri 04:56:57 AM -19.7540 130.6200 303° West 483 556 35,800  Level FlightAware ADS-B
Fri 04:57:17 AM -19.4827 130.1833 124° Southeast 36,000  Climbing Aus ATC (Calculated)
Fri 04:57:57 AM -19.6830 130.5050 303° West 484 557 35,800 -150 Descending FlightAware ADS-B
Fri 04:58:37 AM -19.6300 130.4200 303° West 484 557 35,800 71 Level FlightAware ADS-B
Fri 04:59:22 AM -19.5810 130.3400 303° West 483 556 35,900 71 Climbing FlightAware ADS-B
Fri 05:00:02 AM -19.5400 130.2730 303° West 483 556 35,900  Level FlightAware ADS-B
Fri 05:00:42 AM -19.4980 130.2050 303° West 483 556 35,900  Level FlightAware ADS-B
Fri 05:00:57 AM -19.2182 129.7593 124° Southeast 36,000  Climbing Aus ATC (Calculated)
Fri 05:01:22 AM -19.4570 130.1380 303° West 483 556 35,900 -92 Descending FlightAware ADS-B
Fri 05:02:02 AM -19.4150 130.0700 303° West 483 556 35,900  Level FlightAware ADS-B
Fri 05:02:52 AM -19.3640 129.9860 303° West 483 556 35,900  Level FlightAware ADS-B
Fri 05:03:32 AM -19.3220 129.9180 303° West 483 556 35,900  Level FlightAware ADS-B
Fri 05:04:12 AM -19.2810 129.8510 303° West 483 556 35,900  Level FlightAware ADS-B
Fri 05:04:52 AM -19.2400 129.7830 303° West 483 556 35,900  Level FlightAware ADS-B
Fri 05:05:32 AM -19.1980 129.7160 304° West 483 556 35,900  Level FlightAware ADS-B
Fri 05:05:57 AM -18.8388 129.1559 124° Southeast 36,000  Climbing Aus ATC (Calculated)
Fri 05:06:22 AM -19.1460 129.6310 303° West 483 556 35,900 -92 Descending FlightAware ADS-B
Fri 05:07:02 AM -19.1050 129.5640 303° West 483 556 35,900  Level FlightAware ADS-B
Fri 05:07:42 AM -19.0640 129.4960 303° West 483 556 35,900  Level FlightAware ADS-B
Fri 05:08:32 AM -19.0120 129.4120 303° West 483 556 35,900  Level FlightAware ADS-B
Fri 05:09:02 AM -18.9810 129.3620 303° West 483 556 35,900  Level FlightAware ADS-B
Fri 05:09:52 AM -18.9290 129.2770 303° West 483 556 35,900  Level FlightAware ADS-B
Fri 05:10:32 AM -18.8880 129.2100 303° West 483 556 35,900  Level FlightAware ADS-B
Fri 05:10:56 AM -18.4573 128.5551 125° Southeast 36,000  Climbing Aus ATC (Calculated)
Fri 05:11:12 AM -18.8460 129.1430 304° West 483 556 35,900 -91 Descending FlightAware ADS-B
Fri 05:12:02 AM -18.7950 129.0590 304° West 483 556 35,900  Level FlightAware ADS-B
Fri 05:12:42 AM -18.7530 128.9910 303° West 483 556 35,900  Level FlightAware ADS-B
Fri 05:13:22 AM -18.7120 128.9240 303° West 483 556 35,900 Level FlightAware ADS-B
Fri 05:15:00 AM -18.5904 128.7343 304° West  Level FlightAware Approximate
Fri 05:15:56 AM -18.0740 127.9571 304° West 36,000  Level Aus ATC (Calculated)
Fri 05:16:00 AM -18.5159 128.6183 304° West  Level FlightAware Approximate
Fri 05:17:00 AM -17.9945 127.8337 304° West  Level FlightAware Approximate
Fri 05:18:00 AM -17.9199 127.7182 304° West  Level FlightAware Approximate
Fri 05:19:00 AM -17.8452 127.6027 304° West  Level FlightAware Approximate
Fri 05:20:00 AM -17.7705 127.4874 304° West  Level FlightAware Approximate
Fri 05:20:55 AM -17.6888 127.3615 304° West 36,000  Level Aus ATC (Calculated)
Fri 05:21:00 AM -17.6957 127.3721 304° West  Level FlightAware Approximate
Fri 05:22:00 AM -17.6077 127.2368 304° West  Level FlightAware Approximate
Fri 05:23:00 AM -17.5327 127.1218 304° West  Level FlightAware Approximate
Fri 05:24:00 AM -17.4577 127.0068 304° West  Level FlightAware Approximate
Fri 05:25:00 AM -17.3826 126.8920 304° West  Level FlightAware Approximate
Fri 05:25:55 AM -17.3018 126.7686 304° West 36,000  Level Aus ATC (Calculated)
Fri 05:25:55 AM -17.3018 126.7686 304° West 36,000  Level Aus ATC (Calculated)
Fri 05:26:00 AM -17.3075 126.7772 304° West  Level FlightAware Approximate
Fri 05:27:00 AM -17.2203 126.6444 304° West  Level FlightAware Approximate
Fri 05:28:00 AM -17.1450 126.5298 305° West  Level FlightAware Approximate
Fri 05:29:00 AM -17.0697 126.4154 305° West  Level FlightAware Approximate
Fri 05:29:58 AM -16.9909 126.2960 304° West 36,000  Level Aus ATC (Calculated)
Fri 05:30:00 AM -16.9942 126.3010 304° West  Level FlightAware Approximate
Fri 05:30:54 AM -16.9130 126.1780 304° West 36,000  Level Aus ATC (Calculated)
Fri 05:31:00 AM -16.9129 126.1779 305° West  Level FlightAware Approximate
Fri 05:32:00 AM -16.8299 126.0525 305° West  Level FlightAware Approximate
Fri 05:33:00 AM -16.7543 125.9384 305° West  Level FlightAware Approximate
Fri 05:34:00 AM -16.6786 125.8244 305° West  Level FlightAware Approximate
Fri 05:35:00 AM -16.6029 125.7105 305° West  Level FlightAware Approximate
Fri 05:35:54 AM -16.5226 125.5899 304° West 36,000  Level Aus ATC (Calculated)
Fri 05:36:00 AM -16.5271 125.5967 305° West  Level FlightAware Approximate
Fri 05:37:00 AM -16.4391 125.4649 305° West  Level FlightAware Approximate
Fri 05:38:00 AM -16.5150 125.5786 125° Southeast  Level FlightAware Approximate
Fri 05:39:00 AM -16.4391 125.4649 305° West  Level FlightAware Approximate
Fri 05:40:00 AM -16.4371 125.4604 301° West  Level FlightAware Approximate
Fri 05:40:53 AM -16.1733 125.0129 305° West 36,000  Level Aus ATC (Calculated)
Fri 05:41:00 AM -16.3677 125.3424 301° West  Level FlightAware Approximate
Fri 05:41:33 AM -16.1393 124.9555 305° West 36,000  Level Aus ATC (Calculated)
Fri 05:42:00 AM -16.0955 124.8814 302° West  Level FlightAware Approximate
Fri 05:43:00 AM -16.0382 124.7849 302° West  Level FlightAware Approximate
Fri 05:44:00 AM -15.9684 124.6673 302° West  Level FlightAware Approximate
Fri 05:44:27 AM -15.9353 124.6117 305° West 36,000  Level Aus ATC (Calculated)
Fri 05:45:00 AM -15.8986 124.5498 302° West  Level FlightAware Approximate
Fri 05:46:00 AM -15.8270 124.4297 302° West  Level FlightAware Approximate
Fri 05:46:28 AM -15.7649 124.3257 305° West 36,000  Level Aus ATC (Calculated)
Fri 05:47:00 AM -15.7570 124.3124 302° West  Level FlightAware Approximate
Fri 05:48:00 AM -15.6575 124.1459 302° West  Level FlightAware Approximate
Fri 05:49:00 AM -15.5873 124.0288 302° West  Level FlightAware Approximate
Fri 05:50:00 AM -15.5171 123.9118 302° West  Level FlightAware Approximate
Fri 05:51:00 AM -15.4468 123.7948 302° West  Level FlightAware Approximate
Fri 05:51:27 AM -15.4230 123.7551 306° West 36,000  Level Aus ATC (Calculated)
Fri 05:53:00 AM -15.3139 123.5740 302° West  Level FlightAware Approximate
Fri 05:54:00 AM -15.2434 123.4573 302° West  Level FlightAware Approximate
Fri 05:54:05 AM -15.2514 123.4705 306° West 36,000  Level Aus ATC (Calculated)
Fri 05:55:27 AM -15.1483 123.2999 306° West 36,000  Level Aus ATC (Calculated)
Fri 05:56:27 AM -15.0795 123.1863 306° West 36,000  Level Aus ATC (Calculated)
Fri 05:58:00 AM -14.9700 123.0058 302° West  Level FlightAware Approximate
Fri 05:59:00 AM -14.8993 122.8895 302° West  Level FlightAware Approximate
Fri 06:00:00 AM -14.8285 122.7732 302° West  Level FlightAware Approximate
Fri 06:01:00 AM -14.7576 122.6570 302° West  Level FlightAware Approximate
Fri 06:01:27 AM -14.7347 122.6194 306° West 36,000  Level Aus ATC (Calculated)
Fri 06:02:00 AM -14.6867 122.5409 302° West  Level FlightAware Approximate
Fri 06:03:00 AM -14.6247 122.4395 302° West  Level FlightAware Approximate
Fri 06:04:00 AM -14.5536 122.3235 302° West  Level FlightAware Approximate
Fri 06:05:00 AM -14.4826 122.2076 302° West  Level FlightAware Approximate
Fri 06:06:00 AM -14.4114 122.0917 302° West  Level FlightAware Approximate
Fri 06:06:26 AM -14.3537 121.9979 307° West 36,000  Level Aus ATC (Calculated)
Fri 06:07:00 AM -14.3402 121.9760 302° West  Level FlightAware Approximate
Fri 06:08:00 AM -14.2421 121.8166 302° West  Level FlightAware Approximate
Fri 06:08:36 AM -14.2148 121.7724 307° West 36,000  Level Aus ATC (Calculated)
Fri 06:08:36 AM -14.2148 121.7724 307° West 36,000  Level Aus ATC (Calculated)
Fri 06:10:00 AM -14.1149 121.6106 302° West  Level FlightAware Approximate
Fri 06:10:46 AM -14.0408 121.4909 308° West 36,000  Level Aus ATC (Calculated)
Fri 06:11:00 AM -14.0435 121.4952 303° West  Level FlightAware Approximate
Fri 06:12:00 AM -13.9526 121.3486 303° West  Level FlightAware Approximate
Fri 06:13:00 AM -13.8811 121.2333 303° West  Level FlightAware Approximate
Fri 06:13:01 AM -13.9014 121.2660 308° West 36,000  Level Aus ATC (Calculated)
Fri 06:15:00 AM -13.7594 121.0375 303° West  Level FlightAware Approximate
Fri 06:15:05 AM -13.7268 120.9852 308° West 36,000  Level Aus ATC (Calculated)
Fri 06:15:50 AM -13.6919 120.9291 308° West 36,000  Level Aus ATC (Calculated)
Fri 06:17:00 AM -13.6082 120.7949 303° West  Level FlightAware Approximate
Fri 06:17:05 AM -13.5870 120.7609 309° West 36,000  Level Aus ATC (Calculated)
Fri 06:18:40 AM -13.4819 120.5929 309° West 36,000  Level Aus ATC (Calculated)
Fri 06:19:00 AM -13.4493 120.5407 303° West  Level FlightAware Approximate
Fri 06:19:40 AM -13.4118 120.4809 309° West 36,000  Level Aus ATC (Calculated)
Fri 06:21:00 AM -13.3159 120.3279 303° West  Level FlightAware Approximate
Fri 06:21:05 AM -13.3066 120.3131 309° West 36,000  Level Aus ATC (Calculated)
Fri 06:21:45 AM -13.2715 120.2572 310° West 36,000  Level Aus ATC (Calculated)
Fri 06:23:00 AM -13.1814 120.1139 303° West  Level FlightAware Approximate
Fri 06:24:00 AM -13.1093 119.9994 303° West  Level FlightAware Approximate
Fri 06:24:09 AM -13.0958 119.9780 310° West 36,000  Level Aus ATC (Calculated)
Fri 06:26:00 AM -12.9623 119.7662 303° West  Level FlightAware Approximate
Fri 06:27:00 AM -12.8900 119.6519 303° West  Level FlightAware Approximate
Fri 06:28:00 AM -12.8177 119.5376 303° West  Level FlightAware Approximate
Fri 06:28:19 AM -12.7788 119.4762 311° West 36,000  Level Aus ATC (Calculated)
Fri 06:29:00 AM -12.7436 119.4206 311° West 36,000  Level Aus ATC (Calculated)
Fri 06:29:44 AM -12.6730 119.3093 312° West 36,000  Level Aus ATC (Calculated)
Fri 06:30:00 AM -12.6711 119.3064 303° West  Level FlightAware Approximate
Fri 06:30:44 AM -12.6023 119.1981 312° West 36,000  Level Aus ATC (Calculated)
Fri 06:31:00 AM -12.5812 119.1648 303° West  Level FlightAware Approximate
Fri 06:31:34 AM -12.5316 119.0869 313° West 36,000  Level Aus ATC (Calculated)
Fri 06:32:37 AM -12.4609 118.9758 313° West 36,000  Level Aus ATC (Calculated)
Fri 06:33:00 AM -12.4276 118.9236 303° West  Level FlightAware Approximate
Fri 06:34:00 AM -12.3604 118.8182 303° West  Level FlightAware Approximate
Fri 06:35:00 AM -12.2878 118.7044 303° West  Level FlightAware Approximate
Fri 06:36:00 AM -12.2151 118.5907 303° West  Level FlightAware Approximate
Fri 06:36:28 AM -12.1775 118.5319 315° West 36,000  Level Aus ATC (Calculated)
Fri 06:38:00 AM -12.0659 118.3577 303° West  Level FlightAware Approximate
Fri 06:39:00 AM -11.9930 118.2441 303° West  Level FlightAware Approximate
Fri 06:39:00 AM -12.0000 118.2550 317° Northwest 36,000  Level Aus ATC (Calculated)
Fri 06:40:00 AM -11.8672 118.2550 North  Level FlightAware Approximate
Fri 06:41:00 AM -12.0000 118.2550 180° South  Level FlightAware Approximate
Fri 06:42:00 AM -11.8672 118.2550 North  Level FlightAware Approximate
Fri 06:43:00 AM -12.0000 118.2550 180° South  Level FlightAware Approximate
Fri 06:44:00 AM -11.8672 118.2550 North  Level FlightAware Approximate
Fri 06:45:00 AM -12.0000 118.2550 180° South  Level FlightAware Approximate
Fri 06:46:00 AM -11.8672 118.2550 North  Level FlightAware Approximate
Fri 06:47:00 AM -11.9675 118.2236 317° Northwest  Level FlightAware Approximate
Fri 06:48:00 AM -11.8710 118.1304 317° Northwest  Level FlightAware Approximate
Fri 06:49:00 AM -11.7744 118.0372 317° Northwest  Level FlightAware Approximate
Fri 06:50:00 AM -11.6778 117.9441 317° Northwest  Level FlightAware Approximate
Fri 06:51:00 AM -11.5811 117.8510 317° Northwest  Level FlightAware Approximate
Fri 06:52:00 AM -11.4845 117.7581 317° Northwest  Level FlightAware Approximate
Fri 06:53:00 AM -11.3878 117.6651 317° Northwest  Level FlightAware Approximate
Fri 06:54:00 AM -11.2910 117.5723 317° Northwest  Level FlightAware Approximate
Fri 06:55:00 AM -11.1943 117.4795 317° Northwest  Level FlightAware Approximate
Fri 06:56:00 AM -11.0975 117.3868 317° Northwest  Level FlightAware Approximate
Fri 06:57:00 AM -11.0007 117.2941 317° Northwest  Level FlightAware Approximate
Fri 06:58:00 AM -10.9038 117.2015 317° Northwest  Level FlightAware Approximate
Fri 06:59:00 AM -10.8069 117.1089 317° Northwest  Level FlightAware Approximate
Fri 07:00:00 AM -10.7100 117.0165 317° Northwest  Level FlightAware Approximate
Fri 07:01:00 AM -10.6131 116.9240 317° Northwest  Level FlightAware Approximate
Fri 07:02:00 AM -10.5162 116.8317 317° Northwest  Level FlightAware Approximate
Fri 07:03:00 AM -10.4192 116.7393 317° Northwest  Level FlightAware Approximate
Fri 07:03:02 AM -10.2930 116.6190 317° Northwest 454 522 36,000  Level FlightAware ADS-B
Fri 07:03:37 AM -10.2440 116.5720 317° Northwest 454 522 36,000  Level FlightAware ADS-B
Fri 07:04:27 AM -10.1620 116.4950 317° Northwest 452 520 36,000  Level FlightAware ADS-B
Fri 07:05:07 AM -10.1060 116.4410 316° Northwest 453 521 36,000  Level FlightAware ADS-B
Fri 07:05:52 AM -10.0320 116.3720 317° Northwest 456 525 36,000  Level FlightAware ADS-B
Fri 07:06:47 AM -9.9460 116.2900 317° Northwest 457 526 36,000  Level FlightAware ADS-B
Fri 07:07:27 AM -9.8850 116.2320 317° Northwest 457 526 36,000  Level FlightAware ADS-B
Fri 07:08:07 AM -9.8210 116.1710 317° Northwest 457 526 36,000  Level FlightAware ADS-B
Fri 07:08:52 AM -9.7520 116.1070 318° Northwest 458 527 36,000  Level FlightAware ADS-B
Fri 07:09:32 AM -9.6900 116.0480 317° Northwest 459 528 36,000  Level FlightAware ADS-B
Fri 07:10:17 AM -9.6200 115.9820 317° Northwest 460 529 36,000  Level FlightAware ADS-B
Fri 07:10:57 AM -9.5580 115.9230 317° Northwest 460 529 36,000  Level FlightAware ADS-B
Fri 07:11:42 AM -9.4860 115.8550 317° Northwest 461 531 36,000  Level FlightAware ADS-B
Fri 07:12:22 AM -9.4230 115.7960 317° Northwest 462 532 36,000  Level FlightAware ADS-B
Fri 07:13:02 AM -9.3600 115.7370 317° Northwest 464 534 36,000  Level FlightAware ADS-B
Fri 07:13:47 AM -9.2910 115.6720 317° Northwest 465 535 36,000  Level FlightAware ADS-B
Fri 07:14:27 AM -9.2290 115.6130 317° Northwest 464 534 36,000  Level FlightAware ADS-B
Fri 07:15:07 AM -9.1640 115.5520 317° Northwest 467 537 36,000  Level FlightAware ADS-B
Fri 07:15:52 AM -9.0920 115.4840 317° Northwest 467 537 36,000  Level FlightAware ADS-B
Fri 07:16:32 AM -9.0280 115.4240 317° Northwest 465 535 36,000  Level FlightAware ADS-B
Fri 07:17:17 AM -8.9600 115.3600 317° Northwest 464 534 36,000  Level FlightAware ADS-B
Fri 07:17:57 AM -8.8960 115.3000 317° Northwest 465 535 36,000  Level FlightAware ADS-B
Fri 07:18:42 AM -8.8230 115.2310 317° Northwest 466 536 36,000  Level FlightAware ADS-B
Fri 07:19:22 AM -8.7590 115.1730 318° Northwest 466 536 36,000  Level FlightAware ADS-B
Fri 07:20:02 AM -8.6900 115.1190 322° Northwest 467 537 36,000  Level FlightAware ADS-B
Fri 07:20:47 AM -8.6140 115.0630 324° Northwest 466 536 36,000  Level FlightAware ADS-B
Fri 07:21:27 AM -8.5430 115.0110 324° Northwest 466 536 36,000  Level FlightAware ADS-B
Fri 07:22:12 AM -8.4660 114.9510 322° Northwest 466 536 36,000  Level FlightAware ADS-B
Fri 07:22:57 AM -8.3950 114.8850 317° Northwest 466 536 36,000  Level FlightAware ADS-B
Fri 07:23:37 AM -8.3340 114.8250 316° Northwest 465 535 36,000  Level FlightAware ADS-B
Fri 07:24:17 AM -8.2730 114.7650 316° Northwest 464 534 36,000  Level FlightAware ADS-B
Fri 07:25:02 AM -8.2010 114.6950 316° Northwest 464 534 36,000  Level FlightAware ADS-B
Fri 07:25:42 AM -8.1400 114.6350 316° Northwest 464 534 36,000  Level FlightAware ADS-B
Fri 07:26:27 AM -8.0700 114.5670 316° Northwest 464 534 36,000  Level FlightAware ADS-B
Fri 07:27:07 AM -8.0110 114.5090 316° Northwest 464 534 36,000  Level FlightAware ADS-B
Fri 07:27:47 AM -7.9470 114.4460 316° Northwest 465 535 36,000  Level FlightAware ADS-B
Fri 07:28:32 AM -7.8770 114.3780 316° Northwest 466 536 36,000  Level FlightAware ADS-B
Fri 07:29:12 AM -7.8210 114.3230 316° Northwest 467 537 36,000  Level FlightAware ADS-B
Fri 07:29:57 AM -7.7530 114.2570 316° Northwest 468 539 36,000  Level FlightAware ADS-B
Fri 07:30:32 AM -7.7030 114.2080 316° Northwest 467 537 36,000  Level FlightAware ADS-B
Fri 07:31:17 AM -7.6260 114.1330 316° Northwest 468 539 36,000  Level FlightAware ADS-B
Fri 07:31:57 AM -7.5630 114.0720 316° Northwest 467 537 36,000  Level FlightAware ADS-B
Fri 07:32:57 AM -7.4700 113.9810 316° Northwest 467 537 36,000  Level FlightAware ADS-B
Fri 07:33:52 AM -7.3850 113.8990 316° Northwest 467 537 36,000  Level FlightAware ADS-B
Fri 07:34:32 AM -7.3210 113.8360 316° Northwest 467 537 36,000  Level FlightAware ADS-B
Fri 07:35:17 AM -7.2580 113.7750 316° Northwest 467 537 36,000  Level FlightAware ADS-B
Fri 07:35:57 AM -7.1880 113.7070 316° Northwest 466 536 36,000  Level FlightAware ADS-B
Fri 07:36:42 AM -7.1260 113.6470 316° Northwest 467 537 36,000  Level FlightAware ADS-B
Fri 07:37:22 AM -7.0660 113.5880 316° Northwest 467 537 36,000  Level FlightAware ADS-B
Fri 07:38:07 AM -6.9930 113.5180 316° Northwest 467 537 36,000  Level FlightAware ADS-B
Fri 07:38:47 AM -6.9340 113.4600 316° Northwest 467 537 36,000  Level FlightAware ADS-B
Fri 07:39:27 AM -6.8810 113.4090 316° Northwest 467 537 36,000  Level FlightAware ADS-B
Fri 07:40:07 AM -6.8280 113.3570 316° Northwest 467 537 36,000  Level FlightAware ADS-B
Fri 07:40:47 AM -6.7750 113.3060 316° Northwest 467 537 36,000  Level FlightAware ADS-B
Fri 07:41:27 AM -6.7220 113.2550 316° Northwest 467 537 36,000  Level FlightAware ADS-B
Fri 07:42:17 AM -6.6560 113.1900 316° Northwest 467 537 36,000  Level FlightAware ADS-B
Fri 07:42:57 AM -6.6030 113.1390 316° Northwest 467 537 36,000  Level FlightAware ADS-B
Fri 07:43:37 AM -6.5510 113.0880 316° Northwest 467 537 36,000  Level FlightAware ADS-B
Fri 07:44:17 AM -6.4980 113.0360 316° Northwest 467 537 36,000  Level FlightAware ADS-B
Fri 07:45:07 AM -6.4320 112.9720 316° Northwest 467 537 36,000  Level FlightAware ADS-B
Fri 07:45:47 AM -6.3790 112.9210 316° Northwest 467 537 36,000  Level FlightAware ADS-B
Fri 07:46:27 AM -6.3260 112.8690 316° Northwest 467 537 36,000  Level FlightAware ADS-B
Fri 07:47:07 AM -6.2730 112.8180 316° Northwest 467 537 36,000  Level FlightAware ADS-B
Fri 07:47:47 AM -6.2200 112.7670 316° Northwest 467 537 36,000  Level FlightAware ADS-B
Fri 07:50:00 AM -6.0285 112.5420 311° West  Level Estimated
Fri 07:51:00 AM -5.9421 112.4406 311° West  Level Estimated
Fri 07:52:00 AM -5.8557 112.3392 311° West  Level Estimated
Fri 07:53:00 AM -5.7692 112.2378 311° West  Level Estimated
Fri 07:54:00 AM -5.6828 112.1365 311° West  Level Estimated
Fri 07:55:00 AM -5.5963 112.0352 311° West  Level Estimated
Fri 07:56:00 AM -5.5098 111.9339 311° West  Level Estimated
Fri 07:57:00 AM -5.4233 111.8326 311° West  Level Estimated
Fri 07:58:00 AM -5.3367 111.7314 311° West  Level Estimated
Fri 07:59:00 AM -5.2502 111.6302 311° West  Level Estimated
Fri 08:00:00 AM -5.1636 111.5290 311° West  Level Estimated
Fri 08:01:00 AM -5.0770 111.4279 311° West  Level Estimated
Fri 08:02:00 AM -4.9904 111.3268 311° West  Level Estimated
Fri 08:03:00 AM -4.9038 111.2257 311° West  Level Estimated
Fri 08:04:00 AM -4.8172 111.1246 311° West  Level Estimated
Fri 08:05:00 AM -4.7305 111.0236 311° West  Level Estimated
Fri 08:06:00 AM -4.6438 110.9226 311° West  Level Estimated
Fri 08:07:00 AM -4.5572 110.8216 311° West  Level Estimated
Fri 08:08:00 AM -4.4705 110.7207 311° West  Level Estimated
Fri 08:09:00 AM -4.3838 110.6197 311° West  Level Estimated
Fri 08:10:00 AM -4.2970 110.5188 311° West  Level Estimated
Fri 08:11:00 AM -4.2103 110.4179 311° West  Level Estimated
Fri 08:12:00 AM -4.1236 110.3170 311° West  Level Estimated
Fri 08:13:00 AM -4.0368 110.2162 311° West  Level Estimated
Fri 08:14:00 AM -3.9501 110.1154 311° West  Level Estimated
Fri 08:15:00 AM -3.8633 110.0146 311° West  Level Estimated
Fri 08:16:00 AM -3.7765 109.9138 311° West  Level Estimated
Fri 08:17:00 AM -3.6897 109.8130 311° West  Level Estimated
Fri 08:18:00 AM -3.6029 109.7123 311° West  Level Estimated
Fri 08:19:00 AM -3.5160 109.6116 311° West  Level Estimated
Fri 08:20:00 AM -3.4292 109.5109 311° West  Level Estimated
Fri 08:21:00 AM -3.3423 109.4102 311° West  Level Estimated
Fri 08:22:00 AM -3.2555 109.3095 311° West  Level Estimated
Fri 08:23:00 AM -3.1686 109.2089 311° West  Level Estimated
Fri 08:24:00 AM -3.0817 109.1082 311° West  Level Estimated
Fri 08:25:00 AM -2.9948 109.0076 311° West  Level Estimated
Fri 08:26:00 AM -2.9079 108.9070 311° West  Level Estimated
Fri 08:27:00 AM -2.8210 108.8064 311° West  Level Estimated
Fri 08:28:00 AM -2.7341 108.7059 311° West  Level Estimated
Fri 08:29:00 AM -2.6472 108.6053 311° West  Level Estimated
Fri 08:30:00 AM -2.5603 108.5048 311° West  Level Estimated
Fri 08:31:00 AM -2.4733 108.4042 311° West  Level Estimated
Fri 08:32:00 AM -2.3864 108.3037 311° West  Level Estimated
Fri 08:33:00 AM -2.2994 108.2032 311° West  Level Estimated
Fri 08:34:00 AM -2.2125 108.1027 311° West  Level Estimated
Fri 08:35:00 AM -2.1255 108.0022 311° West  Level Estimated
Fri 08:36:00 AM -2.0385 107.9018 311° West  Level Estimated
Fri 08:37:00 AM -1.9516 107.8013 311° West  Level Estimated
Fri 08:38:00 AM -1.8720 107.7095 311° West  Level Estimated
Fri 08:39:00 AM -1.7925 107.6177 311° West  Level Estimated
Fri 08:40:00 AM -1.7130 107.5259 311° West  Level Estimated
Fri 08:41:00 AM -1.6335 107.4341 311° West  Level Estimated
Fri 08:42:00 AM -1.5539 107.3423 311° West  Level Estimated
Fri 08:43:00 AM -1.4744 107.2505 311° West  Level Estimated
Fri 08:44:00 AM -1.3948 107.1587 311° West  Level Estimated
Fri 08:45:00 AM -1.3153 107.0669 311° West  Level Estimated
Fri 08:46:00 AM -1.2357 106.9752 311° West  Level Estimated
Fri 08:46:12 AM -0.9670 106.9270 311° West 473 544 36,000  Level FlightAware ADS-B
Fri 08:46:42 AM -0.9300 106.8820 309° West 473 544 36,000  Level FlightAware ADS-B
Fri 08:47:22 AM -0.8820 106.8250 310° West 473 544 36,000  Level FlightAware ADS-B
Fri 08:48:02 AM -0.8340 106.7680 310° West 473 544 36,000  Level FlightAware ADS-B
Fri 08:48:42 AM -0.7860 106.7110 310° West 473 544 36,000  Level FlightAware ADS-B
Fri 08:49:32 AM -0.7260 106.6400 310° West 473 544 36,000  Level FlightAware ADS-B
Fri 08:50:12 AM -0.6780 106.5830 310° West 473 544 36,000  Level FlightAware ADS-B
Fri 08:50:57 AM -0.6310 106.5260 310° West 473 544 36,000  Level FlightAware ADS-B
Fri 08:51:32 AM -0.5830 106.4690 310° West 473 544 36,000  Level FlightAware ADS-B
Fri 08:52:22 AM -0.5230 106.3980 310° West 473 544 36,000  Level FlightAware ADS-B
Fri 08:53:02 AM -0.4750 106.3410 310° West 473 544 36,000  Level FlightAware ADS-B
Fri 08:53:42 AM -0.4270 106.2840 310° West 473 544 36,000  Level FlightAware ADS-B
Fri 08:54:22 AM -0.2090 106.1880 336° Northwest 470 541 36,000  Level FlightAware ADS-B
Fri 08:55:02 AM -0.1390 106.1300 320° Northwest 472 543 36,000  Level FlightAware ADS-B
Fri 08:55:52 AM -0.0510 106.0580 321° Northwest 474 545 36,000  Level FlightAware ADS-B
Fri 08:56:32 AM 0.0140 106.0040 320° Northwest 475 547 36,000  Level FlightAware ADS-B
Fri 08:57:17 AM 0.0950 105.9380 321° Northwest 475 547 36,000  Level FlightAware ADS-B
Fri 08:57:57 AM 0.1630 105.8820 321° Northwest 459 528 36,000  Level FlightAware ADS-B
Fri 08:58:37 AM 0.2260 105.8300 320° Northwest 446 513 36,000 -212 Level FlightAware ADS-B
Fri 08:59:22 AM 0.2980 105.7710 321° Northwest 441 507 35,700 -847 Descending FlightAware ADS-B
Fri 09:00:02 AM 0.3600 105.7200 321° Northwest 436 502 34,800 -1,275 Descending FlightAware ADS-B
Fri 09:00:42 AM 0.4230 105.6690 321° Northwest 431 496 34,000 -1,271 Descending FlightAware ADS-B
Fri 09:01:27 AM 0.4920 105.6120 320° Northwest 424 488 33,000 -1,341 Descending FlightAware ADS-B
Fri 09:02:07 AM 0.5530 105.5620 321° Northwest 420 483 32,100 -1,200 Descending FlightAware ADS-B
Fri 09:02:52 AM 0.6160 105.5070 319° Northwest 414 476 31,300 -1,059 Descending FlightAware ADS-B
Fri 09:03:32 AM 0.6460 105.4370 293° West 411 473 30,600 -918 Descending FlightAware ADS-B
Fri 09:04:17 AM 0.6580 105.3510 278° West 407 468 30,000 -1,200 Descending FlightAware ADS-B
Fri 09:04:57 AM 0.6690 105.2760 278° West 400 460 28,900 -1,650 Descending FlightAware ADS-B
Fri 09:05:37 AM 0.6790 105.2050 278° West 395 455 27,800 -1,624 Descending FlightAware ADS-B
Fri 09:06:22 AM 0.6910 105.1250 279° West 391 450 26,600 -1,624 Descending FlightAware ADS-B
Fri 09:07:02 AM 0.7010 105.0550 278° West 386 444 25,500 -1,650 Descending FlightAware ADS-B
Fri 09:07:42 AM 0.7110 104.9850 278° West 381 438 24,400 -1,694 Descending FlightAware ADS-B
Fri 09:08:27 AM 0.7260 104.9060 281° West 376 433 23,100 -1,624 Descending FlightAware ADS-B
Fri 09:09:07 AM 0.7480 104.8440 290° West 374 430 22,100 -1,553 Descending FlightAware ADS-B
Fri 09:09:52 AM 0.7770 104.7700 291° West 371 427 20,900 -1,624 Descending FlightAware ADS-B
Fri 09:10:32 AM 0.8030 104.7050 292° West 367 422 19,800 -1,624 Descending FlightAware ADS-B
Fri 09:11:17 AM 0.8300 104.6340 291° West 363 418 18,600 -1,629 Descending FlightAware ADS-B
Fri 09:11:42 AM 0.8540 104.6010 306° West 357 411 17,900 -1,650 Descending FlightAware ADS-B
Fri 09:11:57 AM 0.8750 104.5860 324° Northwest 355 409 17,500 -982 Descending FlightAware ADS-B
Fri 09:12:37 AM 0.9340 104.5580 335° Northwest 334 384 17,000 -988 Descending FlightAware ADS-B
Fri 09:13:22 AM 0.9950 104.5310 336° Northwest 326 375 16,100 -1,200 Descending FlightAware ADS-B
Fri 09:14:02 AM 1.0500 104.5060 336° Northwest 322 371 15,300 -1,271 Descending FlightAware ADS-B
Fri 09:14:47 AM 1.1100 104.4790 336° Northwest 315 362 14,300 -1,271 Descending FlightAware ADS-B
Fri 09:15:27 AM 1.1610 104.4520 332° Northwest 314 361 13,500 -1,309 Descending FlightAware ADS-B
Fri 09:15:42 AM 1.1770 104.4350 313° West 313 360 13,100 -1,309 Descending FlightAware ADS-B
Fri 09:16:22 AM 1.2090 104.3870 304° West 308 354 12,300 -1,125 Descending FlightAware ADS-B
Fri 09:17:02 AM 1.2410 104.3410 305° West 301 346 11,600 -776 Descending FlightAware ADS-B
Fri 09:17:47 AM 1.2740 104.2920 304° West 277 319 11,200 -776 Descending FlightAware ADS-B
Fri 09:18:27 AM 1.3090 104.2600 318° Northwest 264 304 10,500 -1,029 Descending FlightAware ADS-B
Fri 09:18:57 AM 1.3460 104.2550 352° North 262 302 10,000 -982 Descending FlightAware ADS-B
Fri 09:19:22 AM 1.3740 104.2530 356° North 260 299 9,600 -982 Descending FlightAware ADS-B
Fri 09:19:52 AM 1.4130 104.2490 354° North 258 297 9,100 -900 Descending FlightAware ADS-B
Fri 09:20:22 AM 1.4490 104.2450 354° North 256 295 8,700 -764 Descending FlightAware ADS-B
Fri 09:20:47 AM 1.4770 104.2430 356° North 254 292 8,400 -655 Descending FlightAware ADS-B
Fri 09:21:17 AM 1.5120 104.2400 355° North 240 276 8,100 -982 Descending FlightAware ADS-B
Fri 09:21:42 AM 1.5390 104.2380 356° North 221 254 7,500 -1,745 Descending FlightAware ADS-B
Fri 09:22:12 AM 1.5700 104.2350 354° North 213 245 6,500 -2,000 Descending FlightAware ADS-B
Fri 09:22:27 AM 1.5820 104.2290 333° Northwest 214 246 6,000 -1,680 Descending FlightAware ADS-B
Fri 09:22:37 AM 1.5890 104.2230 319° Northwest 216 249 5,800 -960 Descending FlightAware ADS-B
Fri 09:22:52 AM 1.5970 104.2120 306° West 214 246 5,600 -1,000 Descending FlightAware ADS-B
Fri 09:23:07 AM 1.6000 104.1970 281° West 211 243 5,300 -1,080 Descending FlightAware ADS-B
Fri 09:23:42 AM 1.5950 104.1630 262° West 207 238 4,700 -857 Descending FlightAware ADS-B
Fri 09:24:17 AM 1.5790 104.1350 240° Southwest 204 235 4,300 -700 Descending FlightAware ADS-B
Fri 09:24:42 AM 1.5630 104.1160 230° Southwest 203 234 4,000 -360 Descending FlightAware ADS-B
Fri 09:25:07 AM 1.5490 104.1000 229° Southwest 203 234 4,000 -500 Level FlightAware ADS-B
Fri 09:25:42 AM 1.5270 104.0720 232° Southwest 202 232 3,500 -982 Descending FlightAware ADS-B
Fri 09:26:02 AM 1.5150 104.0570 231° Southwest 201 231 3,100 -1,050 Descending FlightAware ADS-B
Fri 09:26:22 AM 1.5020 104.0440 225° Southwest 201 231 2,800 -960 Descending FlightAware ADS-B
Fri 09:26:52 AM 1.4780 104.0320 207° Southwest 186 214 2,300 -982 Descending FlightAware ADS-B
Fri 09:27:17 AM 1.4600 104.0240 204° Southwest 172 198 1,900 -900 Descending FlightAware ADS-B
Fri 09:27:32 AM 1.4480 104.0190 203° Southwest 164 189 1,700 -800 Descending FlightAware ADS-B
Fri 09:28:02 AM 1.4280 104.0110 202° Southwest 156 180 1,300 -873 Descending FlightAware ADS-B
Fri 09:28:27 AM 1.4120 104.0040 204° Southwest 156 180 900 -873 Descending FlightAware ADS-B
Fri 09:28:57 AM 1.3920 103.9960 202° Southwest 153 176 500 -764 Descending FlightAware ADS-B
Fri 09:29:22 AM 1.3750 103.9880 205° Southwest 153 176 200 -720 Descending FlightAware ADS-B
Fri 09:32:00 AM 1.3557 103.9875 72° East  Level Estimated
Fri 09:33:00 AM 1.3557 103.9875 214° Southwest  Level Estimated
Fri 09:34:00 AM 1.3557 103.9875 214° Southwest  Level Estimated
Fri 09:35:00 AM 1.3557 103.9875 214° Southwest  Level Estimated
Fri 09:36:00 AM 1.3557 103.9875 214° Southwest  Level Estimated
Fri 09:37:00 AM 1.3557 103.9875 214° Southwest  Level Estimated
Fri 09:39:00 AM 1.3557 103.9875 165° South  Level Estimated
Fri 09:41:00 AM 1.3557 103.9875 176° South  Level Estimated
Fri 09:42:00 AM 1.3557 103.9875 214° Southwest  Level Estimated

Login

Don't have an account? Register now (free) for customized features, flight alerts, and more!